Time;durP1;ratioP1;P1;durP2;ratioP2;P2;SDS_P1;SDS_P2;PMS_P1;PMS_P2;Temp;Humidity;BMP_temperature;BMP_pressure;BME280_temperature;BME280_humidity;BME280_pressure;Samples;Min_cycle;Max_cycle;Signal;HPM_P1;HPM_P2
2023/11/28 00:01:58;;;;;;;33.30;13.20;;;;;;;-5.35;62.20;100378.46;107555;1255;99842;-63
2023/11/28 00:04:26;;;;;;;34.70;14.10;;;;;;;-5.35;62.05;100381.96;107588;1252;112065;-66
2023/11/28 00:06:56;;;;;;;28.50;14.40;;;;;;;-5.34;62.17;100379.31;107615;1252;109691;-61
2023/11/28 00:09:24;;;;;;;28.30;14.60;;;;;;;-5.32;62.23;100385.55;107590;1255;107177;-59
2023/11/28 00:11:53;;;;;;;34.20;14.50;;;;;;;-5.32;62.15;100387.46;107595;1253;99170;-60
2023/11/28 00:14:21;;;;;;;31.70;13.80;;;;;;;-5.32;62.32;100384.67;107623;1252;99181;-64
2023/11/28 00:16:50;;;;;;;30.20;13.50;;;;;;;-5.30;62.18;100385.49;107538;1252;112865;-62
2023/11/28 00:19:19;;;;;;;35.60;15.30;;;;;;;-5.28;62.23;100387.35;107599;1251;108695;-62
2023/11/28 00:21:47;;;;;;;29.60;14.20;;;;;;;-5.26;62.95;100387.65;107588;1253;109294;-62
2023/11/28 00:24:17;;;;;;;25.40;13.10;;;;;;;-5.25;62.84;100393.19;107571;1253;99093;-61
2023/11/28 00:26:45;;;;;;;32.00;12.00;;;;;;;-5.24;63.07;100391.59;107592;1251;99105;-63
2023/11/28 00:29:13;;;;;;;22.60;12.20;;;;;;;-5.21;63.44;100387.48;107513;1253;112772;-62
2023/11/28 00:31:42;;;;;;;28.40;12.10;;;;;;;-5.16;63.95;100384.19;107526;1253;109255;-61
2023/11/28 00:34:10;;;;;;;23.30;11.90;;;;;;;-5.09;64.23;100377.33;107521;1256;107420;-62
2023/11/28 00:36:39;;;;;;;19.50;11.70;;;;;;;-5.00;64.38;100368.51;107578;1251;99260;-62
2023/11/28 00:39:09;;;;;;;28.30;13.30;;;;;;;-4.93;65.01;100360.42;107567;1253;99649;-62
2023/11/28 00:41:37;;;;;;;24.90;12.00;;;;;;;-4.89;65.02;100356.08;107526;1252;113191;-59
2023/11/28 00:44:06;;;;;;;36.90;15.60;;;;;;;-4.85;65.16;100353.34;107494;1258;110006;-62
2023/11/28 00:46:39;;;;;;;25.10;12.80;;;;;;;-4.79;65.00;100343.01;107479;1252;109772;-61
2023/11/28 00:49:11;;;;;;;27.90;13.00;;;;;;;-4.71;65.56;100348.88;107490;1252;99327;-61
2023/11/28 00:51:43;;;;;;;26.10;11.40;;;;;;;-4.64;65.53;100346.73;107583;1253;99738;-60
2023/11/28 00:54:11;;;;;;;19.10;10.80;;;;;;;-4.55;65.30;100347.50;107907;1251;113137;-61
2023/11/28 00:56:40;;;;;;;23.50;12.40;;;;;;;-4.48;65.59;100348.50;107611;1253;109518;-61
2023/11/28 00:59:08;;;;;;;24.60;10.30;;;;;;;-4.43;65.30;100346.90;107428;1253;107342;-61
2023/11/28 01:01:37;;;;;;;17.20;10.30;;;;;;;-4.37;65.49;100346.91;107533;1251;99108;-61
2023/11/28 01:04:05;;;;;;;16.40;8.90;;;;;;;-4.36;65.42;100347.94;107576;1254;99069;-63
2023/11/28 01:06:34;;;;;;;30.00;11.70;;;;;;;-4.42;65.96;100346.37;107568;1254;112542;-65
2023/11/28 01:09:03;;;;;;;25.00;12.30;;;;;;;-4.48;65.26;100341.99;107599;1256;108842;-61
2023/11/28 01:11:32;;;;;;;24.20;12.00;;;;;;;-4.47;65.74;100340.40;107506;1252;108197;-60
2023/11/28 01:14:01;;;;;;;21.40;11.50;;;;;;;-4.44;65.54;100343.65;107513;1251;99064;-61
2023/11/28 01:16:29;;;;;;;24.20;11.70;;;;;;;-4.44;65.33;100345.72;107558;1253;99176;-60
2023/11/28 01:19:00;;;;;;;25.90;11.80;;;;;;;-4.45;65.19;100342.27;107480;1257;112882;-61
2023/11/28 01:21:29;;;;;;;20.50;11.10;;;;;;;-4.46;65.14;100347.02;107531;1253;109760;-61
2023/11/28 01:23:59;;;;;;;23.20;11.70;;;;;;;-4.47;64.94;100346.69;107547;1254;107353;-60
2023/11/28 01:26:27;;;;;;;25.10;11.10;;;;;;;-4.48;64.91;100346.38;107512;1253;99194;-59
2023/11/28 01:28:56;;;;;;;22.40;10.30;;;;;;;-4.49;64.76;100340.29;107564;1253;99067;-61
2023/11/28 01:31:25;;;;;;;17.70;9.90;;;;;;;-4.51;64.27;100336.14;107628;1253;112494;-61
2023/11/28 01:33:53;;;;;;;17.40;9.30;;;;;;;-4.52;64.15;100330.78;107556;1251;109649;-61
2023/11/28 01:36:22;;;;;;;18.40;9.40;;;;;;;-4.56;64.40;100328.62;107598;1255;108294;-62
2023/11/28 01:38:50;;;;;;;17.60;9.60;;;;;;;-4.58;64.68;100327.48;107539;1256;99238;-62
2023/11/28 01:41:18;;;;;;;20.70;10.00;;;;;;;-4.60;64.53;100318.08;107602;1251;99179;-61
2023/11/28 01:43:47;;;;;;;18.00;9.30;;;;;;;-4.62;64.41;100318.14;107632;1253;113046;-62
2023/11/28 01:46:16;;;;;;;17.10;9.30;;;;;;;-4.65;64.56;100321.39;107609;1251;109639;-62
2023/11/28 01:48:45;;;;;;;15.30;9.10;;;;;;;-4.69;64.47;100317.33;107558;1254;106706;-63
2023/11/28 01:51:14;;;;;;;18.40;10.20;;;;;;;-4.72;64.62;100311.11;107532;1254;99297;-62
2023/11/28 01:53:43;;;;;;;19.50;9.50;;;;;;;-4.73;64.42;100308.17;107548;1253;99798;-61
2023/11/28 01:56:11;;;;;;;17.40;9.10;;;;;;;-4.74;64.51;100306.46;107576;1253;112177;-61
2023/11/28 01:58:40;;;;;;;20.90;10.10;;;;;;;-4.75;64.52;100303.86;107524;1255;110119;-60
2023/11/28 02:01:09;;;;;;;15.60;8.80;;;;;;;-4.77;64.55;100300.95;107529;1255;107560;-60
2023/11/28 02:03:42;;;;;;;16.10;9.00;;;;;;;-4.79;64.77;100294.71;107539;1253;99290;-63
2023/11/28 02:06:12;;;;;;;20.60;9.30;;;;;;;-4.80;64.60;100295.99;107649;1256;99762;-63
2023/11/28 02:08:41;;;;;;;22.80;9.30;;;;;;;-4.81;64.51;100295.14;107572;1253;112904;-61
2023/11/28 02:11:10;;;;;;;14.50;7.90;;;;;;;-4.83;64.57;100290.48;107572;1255;110165;-62
2023/11/28 02:13:39;;;;;;;16.60;9.20;;;;;;;-4.83;64.46;100287.16;107570;1253;108436;-60
2023/11/28 02:16:12;;;;;;;15.60;9.10;;;;;;;-4.84;64.85;100284.73;107540;1253;99167;-61
2023/11/28 02:18:41;;;;;;;12.60;8.30;;;;;;;-4.85;65.03;100283.20;107568;1253;99202;-64
2023/11/28 02:21:11;;;;;;;14.80;8.70;;;;;;;-4.90;64.93;100282.98;107652;1255;113346;-61
2023/11/28 02:23:40;;;;;;;15.50;8.50;;;;;;;-4.93;64.75;100289.23;107648;1255;109120;-61
2023/11/28 02:26:25;;;;;;;14.80;9.70;;;;;;;-4.94;65.26;100283.85;107528;1256;107874;-61
2023/11/28 02:28:56;;;;;;;20.60;10.50;;;;;;;-4.97;65.09;100280.42;107579;1253;99207;-62
2023/11/28 02:31:25;;;;;;;15.60;9.50;;;;;;;-4.96;65.40;100284.09;107534;1253;99060;-61
2023/11/28 02:33:53;;;;;;;25.10;10.90;;;;;;;-4.94;65.54;100279.63;107541;1254;112502;-60
2023/11/28 02:36:22;;;;;;;15.80;10.20;;;;;;;-4.90;65.67;100277.08;107534;1255;109382;-60
2023/11/28 02:38:52;;;;;;;18.90;9.80;;;;;;;-4.86;65.97;100280.25;107566;1253;106843;-62
2023/11/28 02:41:21;;;;;;;18.50;10.00;;;;;;;-4.80;65.81;100273.06;107526;1255;99263;-61
2023/11/28 02:43:49;;;;;;;16.90;9.40;;;;;;;-4.72;66.46;100265.27;107580;1254;99233;-61
2023/11/28 02:46:18;;;;;;;15.90;8.90;;;;;;;-4.62;66.51;100257.79;107530;1254;113661;-61
2023/11/28 02:48:47;;;;;;;15.60;8.70;;;;;;;-4.53;66.63;100255.36;107662;1252;109694;-60
2023/11/28 02:51:19;;;;;;;19.80;8.80;;;;;;;-4.42;66.66;100248.01;107592;1254;108204;-60
2023/11/28 02:53:48;;;;;;;14.50;8.60;;;;;;;-4.32;66.74;100246.23;107603;1251;99068;-60
2023/11/28 02:56:16;;;;;;;14.80;9.00;;;;;;;-4.22;67.01;100248.16;107589;1256;99085;-61
2023/11/28 02:58:45;;;;;;;17.70;8.70;;;;;;;-4.11;67.02;100239.91;107536;1255;113302;-62
2023/11/28 03:01:14;;;;;;;12.50;7.80;;;;;;;-4.04;66.62;100238.41;107518;1256;109713;-62
2023/11/28 03:03:42;;;;;;;20.10;7.80;;;;;;;-3.98;66.75;100240.46;107550;1254;108767;-62
2023/11/28 03:06:10;;;;;;;13.90;8.00;;;;;;;-3.92;67.21;100236.73;107541;1254;99381;-62
2023/11/28 03:08:40;;;;;;;11.70;7.60;;;;;;;-3.83;66.79;100231.52;107591;1254;99104;-63
2023/11/28 03:11:08;;;;;;;13.60;7.40;;;;;;;-3.75;66.75;100230.70;107578;1251;112106;-62
2023/11/28 03:13:37;;;;;;;14.60;7.70;;;;;;;-3.71;66.73;100228.42;107596;1256;109523;-62
2023/11/28 03:16:06;;;;;;;12.70;7.90;;;;;;;-3.65;66.93;100232.41;107599;1251;108051;-62
2023/11/28 03:18:35;;;;;;;14.70;8.30;;;;;;;-3.58;66.97;100230.55;107622;1251;99809;-60
2023/11/28 03:21:05;;;;;;;16.10;7.80;;;;;;;-3.53;67.12;100229.16;107602;1253;99720;-61
2023/11/28 03:23:33;;;;;;;12.70;7.80;;;;;;;-3.50;66.87;100220.45;107541;1256;113598;-61
2023/11/28 03:26:02;;;;;;;16.80;8.70;;;;;;;-3.49;67.02;100206.18;107580;1256;107886;-61
2023/11/28 03:28:33;;;;;;;18.90;8.60;;;;;;;-3.48;66.80;100200.88;107589;1253;110736;-61
2023/11/28 03:31:01;;;;;;;16.70;8.80;;;;;;;-3.48;66.83;100197.05;107598;1253;99376;-61
2023/11/28 03:33:30;;;;;;;18.40;10.00;;;;;;;-3.49;66.67;100198.83;107588;1256;99749;-60
2023/11/28 03:35:58;;;;;;;16.20;9.20;;;;;;;-3.53;66.52;100204.25;107515;1254;112982;-63
2023/11/28 03:38:27;;;;;;;16.10;8.50;;;;;;;-3.57;67.00;100205.29;107627;1254;109709;-61
2023/11/28 03:40:55;;;;;;;15.60;8.70;;;;;;;-3.62;66.86;100198.29;107522;1256;107096;-62
2023/11/28 03:43:24;;;;;;;16.00;8.30;;;;;;;-3.68;66.79;100201.52;107560;1255;99342;-61
2023/11/28 03:45:52;;;;;;;14.50;8.50;;;;;;;-3.72;66.57;100204.48;107591;1257;99724;-62
2023/11/28 03:48:21;;;;;;;15.30;8.70;;;;;;;-3.75;66.63;100208.42;107583;1255;112756;-59
2023/11/28 03:50:49;;;;;;;16.80;8.80;;;;;;;-3.76;67.03;100208.64;107622;1256;109161;-61
2023/11/28 03:53:18;;;;;;;15.40;8.90;;;;;;;-3.77;66.70;100206.91;107554;1257;108207;-61
2023/11/28 03:55:46;;;;;;;16.30;8.50;;;;;;;-3.77;66.96;100196.09;107596;1256;99288;-59
2023/11/28 03:58:15;;;;;;;16.00;9.00;;;;;;;-3.78;66.53;100182.23;107639;1251;99863;-61
2023/11/28 04:00:43;;;;;;;12.80;7.90;;;;;;;-3.76;66.81;100176.93;107605;1250;112556;-60
2023/11/28 04:03:12;;;;;;;14.60;9.10;;;;;;;-3.74;67.18;100166.88;107607;1251;109579;-61
2023/11/28 04:05:43;;;;;;;17.30;8.30;;;;;;;-3.72;66.85;100159.60;107624;1255;107961;-61
2023/11/28 04:08:11;;;;;;;13.70;8.40;;;;;;;-3.71;66.85;100158.14;107632;1254;99210;-62
2023/11/28 04:10:40;;;;;;;16.30;8.90;;;;;;;-3.69;66.92;100156.52;107498;1253;99358;-62
2023/11/28 04:13:08;;;;;;;13.50;8.50;;;;;;;-3.66;67.06;100161.45;107650;1254;113457;-63
2023/11/28 04:15:38;;;;;;;15.40;8.80;;;;;;;-3.63;66.87;100158.19;107585;1255;108803;-62
2023/11/28 04:18:06;;;;;;;15.20;8.70;;;;;;;-3.60;66.97;100160.20;107621;1255;108198;-62
2023/11/28 04:20:35;;;;;;;17.60;9.50;;;;;;;-3.59;67.10;100158.40;107556;1256;99978;-61
2023/11/28 04:23:06;;;;;;;15.50;9.50;;;;;;;-3.58;67.12;100156.77;107604;1251;99073;-60
2023/11/28 04:25:35;;;;;;;19.70;10.20;;;;;;;-3.56;66.76;100151.98;107629;1251;113209;-62
2023/11/28 04:28:03;;;;;;;29.10;12.70;;;;;;;-3.55;66.91;100150.67;107609;1258;109833;-62
2023/11/28 04:30:32;;;;;;;25.00;11.50;;;;;;;-3.52;66.83;100149.00;107580;1256;107718;-61
2023/11/28 04:33:01;;;;;;;22.30;11.70;;;;;;;-3.52;67.02;100144.92;107571;1255;99186;-61
2023/11/28 04:35:30;;;;;;;19.90;10.80;;;;;;;-3.49;67.31;100135.36;107532;1251;99705;-63
2023/11/28 04:37:58;;;;;;;22.80;10.90;;;;;;;-3.45;67.16;100133.64;107587;1254;113044;-62
2023/11/28 04:40:27;;;;;;;20.70;10.40;;;;;;;-3.42;67.49;100140.52;107601;1254;109680;-61
2023/11/28 04:42:57;;;;;;;21.30;11.10;;;;;;;-3.41;67.53;100143.12;107602;1254;107320;-61
2023/11/28 04:45:26;;;;;;;27.80;12.30;;;;;;;-3.40;67.70;100140.97;107629;1251;99202;-61
2023/11/28 04:47:54;;;;;;;21.00;10.80;;;;;;;-3.39;67.69;100138.80;107603;1251;99184;-62
2023/11/28 04:50:23;;;;;;;26.10;13.20;;;;;;;-3.35;67.97;100133.05;107519;1256;112052;-62
2023/11/28 04:52:51;;;;;;;26.40;13.30;;;;;;;-3.32;68.09;100128.90;107601;1257;109814;-60
2023/11/28 04:55:20;;;;;;;22.30;12.80;;;;;;;-3.28;67.96;100128.93;107569;1251;108167;-61
2023/11/28 04:57:48;;;;;;;30.90;12.40;;;;;;;-3.26;68.33;100128.48;107574;1251;99736;-61
2023/11/28 05:00:17;;;;;;;22.20;11.80;;;;;;;-3.22;68.40;100119.73;107657;1255;99119;-61
2023/11/28 05:02:46;;;;;;;19.60;10.80;;;;;;;-3.17;68.47;100126.53;107576;1254;112601;-61
2023/11/28 05:05:15;;;;;;;20.20;11.30;;;;;;;-3.12;68.63;100126.52;107622;1257;108401;-62
2023/11/28 05:07:43;;;;;;;16.20;9.80;;;;;;;-3.06;69.13;100118.52;107596;1256;107639;-62
2023/11/28 05:10:12;;;;;;;19.40;10.60;;;;;;;-2.98;69.09;100118.54;107456;1257;99305;-63
2023/11/28 05:12:40;;;;;;;15.50;10.10;;;;;;;-2.92;69.32;100118.43;107619;1251;99057;-61
2023/11/28 05:15:09;;;;;;;24.70;9.80;;;;;;;-2.86;69.41;100114.13;107659;1256;112676;-61
2023/11/28 05:17:37;;;;;;;15.70;9.60;;;;;;;-2.76;69.24;100111.79;107466;1254;111035;-60
2023/11/28 05:20:08;;;;;;;15.20;9.90;;;;;;;-2.70;69.30;100104.67;107601;1251;107334;-62
2023/11/28 05:22:38;;;;;;;20.50;9.50;;;;;;;-2.63;69.74;100106.48;107625;1251;99197;-61
2023/11/28 05:25:07;;;;;;;17.20;10.30;;;;;;;-2.57;69.45;100101.48;107480;1251;99205;-61
2023/11/28 05:27:35;;;;;;;18.20;9.60;;;;;;;-2.51;69.40;100097.71;107465;1255;112144;-63
2023/11/28 05:30:06;;;;;;;18.80;10.00;;;;;;;-2.48;69.71;100096.52;107424;1257;109406;-61
2023/11/28 05:32:34;;;;;;;28.60;11.90;;;;;;;-2.43;69.25;100093.47;107450;1257;107293;-59
2023/11/28 05:35:03;;;;;;;27.10;12.80;;;;;;;-2.40;69.36;100083.53;107526;1251;99308;-61
2023/11/28 05:37:32;;;;;;;31.50;13.80;;;;;;;-2.35;69.65;100083.80;107661;1251;99088;-61
2023/11/28 05:40:03;;;;;;;22.80;12.10;;;;;;;-2.31;68.81;100082.77;107690;1251;113044;-61
2023/11/28 05:42:36;;;;;;;33.90;13.20;;;;;;;-2.29;69.12;100086.70;107619;1251;108828;-62
2023/11/28 05:45:05;;;;;;;41.20;16.10;;;;;;;-2.29;69.01;100080.71;107641;1256;106701;-61
2023/11/28 05:47:37;;;;;;;30.40;14.20;;;;;;;-2.31;68.84;100071.32;107615;1251;99212;-62
2023/11/28 05:50:07;;;;;;;20.30;10.50;;;;;;;-2.35;68.94;100071.54;107658;1254;99715;-61
2023/11/28 05:52:36;;;;;;;17.40;8.60;;;;;;;-2.39;68.73;100069.61;107523;1254;112498;-63
2023/11/28 05:55:05;;;;;;;18.00;8.80;;;;;;;-2.41;68.56;100066.67;107469;1254;109780;-62
2023/11/28 05:57:34;;;;;;;18.10;9.80;;;;;;;-2.40;69.13;100063.85;107570;1254;107482;-61
2023/11/28 06:00:04;;;;;;;18.50;9.70;;;;;;;-2.42;68.93;100066.05;107601;1254;99272;-60
2023/11/28 06:02:45;;;;;;;31.80;12.10;;;;;;;-2.39;68.86;100061.14;107596;1251;99728;-61
2023/11/28 06:05:14;;;;;;;23.30;11.00;;;;;;;-2.35;68.80;100059.73;107627;1252;112332;-60
2023/11/28 06:07:43;;;;;;;27.00;12.60;;;;;;;-2.31;68.86;100056.42;107655;1254;107764;-62
2023/11/28 06:10:13;;;;;;;27.30;12.50;;;;;;;-2.28;68.70;100050.64;107492;1251;107099;-62
2023/11/28 06:12:42;;;;;;;25.20;12.40;;;;;;;-2.26;69.26;100050.38;107660;1256;99322;-62
2023/11/28 06:15:10;;;;;;;29.20;14.00;;;;;;;-2.25;68.67;100046.80;107645;1251;99717;-62
2023/11/28 06:17:39;;;;;;;23.40;12.60;;;;;;;-2.20;69.12;100043.23;107596;1255;113471;-61
2023/11/28 06:20:10;;;;;;;16.50;10.20;;;;;;;-2.13;69.05;100035.91;107633;1251;108981;-62
2023/11/28 06:22:38;;;;;;;21.60;11.90;;;;;;;-2.09;69.07;100041.14;107645;1254;108196;-61
2023/11/28 06:25:07;;;;;;;20.30;11.10;;;;;;;-2.04;68.93;100035.80;107586;1253;99272;-61
2023/11/28 06:27:36;;;;;;;22.30;12.30;;;;;;;-1.97;68.98;100039.36;107619;1254;99062;-62
2023/11/28 06:30:06;;;;;;;23.70;11.30;;;;;;;-1.89;69.38;100042.84;107442;1254;112724;-62
2023/11/28 06:32:35;;;;;;;25.00;10.00;;;;;;;-1.81;69.19;100046.52;107614;1256;108892;-62
2023/11/28 06:35:08;;;;;;;17.30;9.50;;;;;;;-1.74;69.62;100044.92;107473;1253;108872;-61
2023/11/28 06:37:38;;;;;;;17.10;10.30;;;;;;;-1.65;69.71;100042.36;107559;1251;99201;-61
2023/11/28 06:40:07;;;;;;;21.30;10.50;;;;;;;-1.63;69.38;100041.73;107643;1256;99090;-62
2023/11/28 06:42:35;;;;;;;16.20;10.90;;;;;;;-1.60;69.36;100037.20;107532;1254;112865;-61
2023/11/28 06:45:05;;;;;;;18.80;10.90;;;;;;;-1.57;69.13;100040.38;107521;1254;109292;-62
2023/11/28 06:47:34;;;;;;;17.10;10.20;;;;;;;-1.51;69.31;100039.20;107613;1251;107526;-60
2023/11/28 06:50:03;;;;;;;18.70;10.80;;;;;;;-1.42;69.90;100034.19;107616;1251;99359;-62
2023/11/28 06:52:36;;;;;;;24.20;11.60;;;;;;;-1.36;69.71;100019.43;107595;1251;99215;-62
2023/11/28 06:55:07;;;;;;;20.60;10.90;;;;;;;-1.26;70.43;100010.83;107541;1256;112441;-61
2023/11/28 06:57:36;;;;;;;26.30;12.70;;;;;;;-1.19;70.23;100012.08;107493;1251;108278;-61
2023/11/28 07:00:07;;;;;;;27.70;13.70;;;;;;;-1.14;70.44;100006.71;107523;1253;107256;-63
2023/11/28 07:02:35;;;;;;;26.50;12.70;;;;;;;-1.04;70.27;100001.46;107604;1254;99119;-62
2023/11/28 07:05:05;;;;;;;20.30;9.80;;;;;;;-0.95;70.52;99995.71;107673;1254;100327;-62
2023/11/28 07:07:34;;;;;;;19.30;10.00;;;;;;;-0.80;70.46;99996.85;107608;1254;112188;-62
2023/11/28 07:10:05;;;;;;;29.50;11.00;;;;;;;-0.65;70.57;99998.70;107578;1253;109148;-63
2023/11/28 07:12:34;;;;;;;20.00;10.50;;;;;;;-0.53;70.29;99997.15;107607;1253;106940;-64
2023/11/28 07:15:04;;;;;;;17.90;9.00;;;;;;;-0.49;70.06;99993.58;107663;1254;99218;-61
2023/11/28 07:17:33;;;;;;;21.20;9.70;;;;;;;-0.47;69.93;99994.69;107603;1253;99037;-63
2023/11/28 07:20:02;;;;;;;25.50;10.00;;;;;;;-0.42;69.76;99991.64;107566;1254;112089;-61
2023/11/28 07:22:31;;;;;;;18.30;9.70;;;;;;;-0.37;69.64;99991.88;107612;1254;109964;-63
2023/11/28 07:24:59;;;;;;;13.90;8.70;;;;;;;-0.32;69.83;99991.39;107572;1253;108523;-66
2023/11/28 07:27:29;;;;;;;17.00;8.90;;;;;;;-0.25;69.83;99991.20;107566;1251;99212;-63
2023/11/28 07:29:58;;;;;;;17.50;8.60;;;;;;;-0.17;69.82;99990.39;107595;1253;99132;-62
2023/11/28 07:32:27;;;;;;;20.50;9.30;;;;;;;-0.07;69.78;99984.88;107578;1256;113448;-62
2023/11/28 07:34:56;;;;;;;13.40;8.50;;;;;;;0.06;69.91;99981.34;107591;1254;109468;-62
2023/11/28 07:37:24;;;;;;;19.90;12.30;;;;;;;0.18;69.67;99978.20;107579;1252;107839;-62
2023/11/28 07:39:53;;;;;;;15.60;9.30;;;;;;;0.25;69.55;99977.05;107414;1254;99214;-63
2023/11/28 07:42:22;;;;;;;15.00;9.20;;;;;;;0.37;69.55;99984.85;107667;1251;99314;-61
2023/11/28 07:44:50;;;;;;;14.50;8.30;;;;;;;0.48;69.44;99986.87;107567;1253;112747;-63
2023/11/28 07:47:19;;;;;;;19.60;11.50;;;;;;;0.57;69.25;99985.80;107544;1251;109251;-61
2023/11/28 07:49:47;;;;;;;27.40;14.70;;;;;;;0.61;68.89;99980.93;107578;1254;108592;-61
2023/11/28 07:52:17;;;;;;;20.20;12.20;;;;;;;0.67;68.81;99981.16;107545;1254;99140;-62
2023/11/28 07:54:46;;;;;;;17.10;9.80;;;;;;;0.73;68.70;99980.60;107559;1251;99829;-63
2023/11/28 07:57:14;;;;;;;13.90;9.40;;;;;;;0.81;68.75;99974.30;107591;1251;112368;-62
2023/11/28 07:59:46;;;;;;;18.50;9.90;;;;;;;0.87;68.19;99975.02;107589;1253;109604;-61
2023/11/28 08:02:15;;;;;;;19.20;10.30;;;;;;;0.85;68.20;99980.40;107635;1255;108209;-61
2023/11/28 08:04:43;;;;;;;16.90;10.00;;;;;;;0.94;68.36;99976.70;107614;1251;99292;-60
2023/11/28 08:07:12;;;;;;;15.50;9.30;;;;;;;1.06;68.49;99971.00;107628;1255;99324;-60
2023/11/28 08:09:40;;;;;;;17.00;10.20;;;;;;;1.16;68.11;99960.86;107635;1254;113077;-62
2023/11/28 08:12:09;;;;;;;22.90;13.00;;;;;;;1.24;68.11;99957.51;107441;1257;109156;-62
2023/11/28 08:14:37;;;;;;;22.50;11.50;;;;;;;1.34;67.93;99951.61;107607;1251;107868;-62
2023/11/28 08:17:06;;;;;;;19.10;10.70;;;;;;;1.43;67.70;99945.42;107524;1251;99246;-62
2023/11/28 08:19:34;;;;;;;24.80;12.20;;;;;;;1.49;67.44;99940.59;107465;1251;99071;-62
2023/11/28 08:22:03;;;;;;;22.70;11.40;;;;;;;1.55;67.37;99940.42;107640;1251;113118;-61
2023/11/28 08:24:31;;;;;;;21.70;11.10;;;;;;;1.60;67.21;99943.27;107616;1251;109096;-64
2023/11/28 08:26:59;;;;;;;17.30;10.00;;;;;;;1.64;66.96;99935.39;107597;1253;109378;-60
2023/11/28 08:29:28;;;;;;;15.00;9.50;;;;;;;1.64;66.62;99932.23;107514;1254;99306;-61
2023/11/28 08:31:58;;;;;;;15.40;9.50;;;;;;;1.63;66.17;99930.69;107593;1253;99081;-64
2023/11/28 08:34:27;;;;;;;17.50;9.00;;;;;;;1.62;66.12;99927.61;107662;1253;111769;-62
2023/11/28 08:36:55;;;;;;;12.70;8.30;;;;;;;1.67;66.36;99913.46;107660;1251;110062;-61
2023/11/28 08:39:23;;;;;;;14.80;9.40;;;;;;;1.79;66.33;99908.84;107599;1255;108238;-61
2023/11/28 08:41:54;;;;;;;14.80;8.40;;;;;;;1.90;66.17;99902.09;107603;1251;99724;-61
2023/11/28 08:44:23;;;;;;;19.50;9.40;;;;;;;1.98;65.82;99898.00;107606;1251;99711;-61
2023/11/28 08:46:51;;;;;;;15.30;9.30;;;;;;;2.02;65.44;99901.45;107638;1251;112701;-60
2023/11/28 08:49:22;;;;;;;18.20;10.00;;;;;;;1.95;65.44;99898.41;107603;1252;108907;-61
2023/11/28 08:51:51;;;;;;;19.50;10.00;;;;;;;1.86;65.72;99893.46;107633;1251;106525;-62
2023/11/28 08:54:19;;;;;;;17.90;9.80;;;;;;;1.80;65.73;99879.02;107575;1253;99354;-60
2023/11/28 08:56:47;;;;;;;28.80;10.70;;;;;;;1.75;65.87;99873.85;107592;1253;99375;-62
2023/11/28 08:59:16;;;;;;;30.80;12.10;;;;;;;1.67;65.85;99863.25;107588;1253;112872;-61
2023/11/28 09:01:45;;;;;;;19.80;10.10;;;;;;;1.61;66.13;99857.67;107626;1255;109395;-61
2023/11/28 09:04:13;;;;;;;18.50;10.00;;;;;;;1.64;66.29;99857.85;107572;1251;108164;-62
2023/11/28 09:06:42;;;;;;;21.00;9.30;;;;;;;1.69;66.52;99854.10;107456;1251;99275;-61
2023/11/28 09:09:10;;;;;;;22.40;9.00;;;;;;;1.81;66.85;99847.50;107579;1253;99186;-62
2023/11/28 09:11:39;;;;;;;17.60;9.90;;;;;;;1.95;66.64;99850.65;107357;1253;112758;-62
2023/11/28 09:14:07;;;;;;;44.10;18.40;;;;;;;2.05;66.25;99841.64;107593;1253;109956;-62
2023/11/28 09:16:40;;;;;;;78.00;30.30;;;;;;;2.07;66.23;99837.81;107548;1254;106793;-63
2023/11/28 09:19:09;;;;;;;40.00;19.00;;;;;;;2.09;66.07;99823.68;107509;1251;99375;-61
2023/11/28 09:21:37;;;;;;;13.10;8.30;;;;;;;2.03;65.97;99813.48;107627;1254;99185;-62
2023/11/28 09:24:08;;;;;;;14.30;7.80;;;;;;;1.98;66.12;99807.48;107444;1250;113196;-62
2023/11/28 09:26:36;;;;;;;17.80;7.50;;;;;;;1.95;66.33;99804.84;107572;1251;110139;-61
2023/11/28 09:29:05;;;;;;;17.20;7.60;;;;;;;1.96;66.34;99801.20;107559;1251;108318;-61
2023/11/28 09:31:36;;;;;;;13.50;7.50;;;;;;;2.05;66.37;99795.52;107585;1253;99190;-60
2023/11/28 09:34:05;;;;;;;19.40;8.10;;;;;;;2.15;66.38;99787.73;107531;1253;99238;-63
2023/11/28 09:36:33;;;;;;;16.40;8.50;;;;;;;2.30;66.37;99784.54;107609;1253;114330;-61
2023/11/28 09:39:05;;;;;;;14.30;8.60;;;;;;;2.49;66.20;99783.80;107587;1252;109389;-62
2023/11/28 09:41:35;;;;;;;13.90;8.00;;;;;;;2.68;65.88;99778.55;107597;1253;107031;-60
2023/11/28 09:44:17;;;;;;;13.40;7.20;;;;;;;2.83;65.03;99772.49;107565;1253;99167;-62
2023/11/28 09:46:51;;;;;;;13.80;8.20;;;;;;;2.95;65.16;99766.88;107552;1253;99203;-62
2023/11/28 09:49:23;;;;;;;19.70;8.20;;;;;;;3.04;64.20;99756.31;107619;1251;112805;-60
2023/11/28 09:51:54;;;;;;;18.40;7.80;;;;;;;3.15;64.51;99745.40;107422;1253;108851;-62
2023/11/28 09:54:24;;;;;;;16.60;8.20;;;;;;;3.31;63.30;99739.81;107616;1251;107876;-61
2023/11/28 09:56:54;;;;;;;15.80;7.50;;;;;;;3.35;63.35;99740.74;107466;1251;99203;-63
2023/11/28 09:59:25;;;;;;;19.20;7.80;;;;;;;3.43;63.26;99734.64;107609;1253;99070;-61
2023/11/28 10:01:53;;;;;;;16.60;7.00;;;;;;;3.47;62.77;99732.90;107559;1253;113484;-62
2023/11/28 10:04:23;;;;;;;13.30;7.00;;;;;;;3.52;62.87;99732.41;107430;1251;109721;-61
2023/11/28 10:06:51;;;;;;;20.00;9.70;;;;;;;3.61;62.94;99726.04;107640;1251;107413;-61
2023/11/28 10:09:20;;;;;;;19.50;10.10;;;;;;;3.73;63.33;99718.55;107563;1252;99180;-61
2023/11/28 10:11:52;;;;;;;18.90;9.10;;;;;;;3.90;62.67;99703.56;107557;1255;99083;-61
2023/11/28 10:14:20;;;;;;;23.00;6.80;;;;;;;4.07;61.47;99700.86;107318;1254;378881;-61
2023/11/28 10:16:51;;;;;;;17.90;5.60;;;;;;;4.22;61.00;99700.80;107615;1252;109697;-60
2023/11/28 10:19:21;;;;;;;10.90;5.00;;;;;;;4.40;58.19;99700.95;107567;1253;107266;-61
2023/11/28 10:21:49;;;;;;;10.70;5.30;;;;;;;4.53;57.41;99694.25;107611;1255;99285;-61
2023/11/28 10:24:20;;;;;;;14.90;5.40;;;;;;;4.65;57.09;99690.24;107600;1252;99128;-61
2023/11/28 10:26:48;;;;;;;8.80;5.00;;;;;;;4.80;55.71;99680.15;107640;1253;112152;-59
2023/11/28 10:29:17;;;;;;;14.70;5.00;;;;;;;4.93;54.69;99669.27;107684;1253;110005;-61
2023/11/28 10:31:46;;;;;;;18.50;5.90;;;;;;;5.03;55.67;99662.09;107676;1253;108664;-62
2023/11/28 10:34:14;;;;;;;12.30;4.90;;;;;;;5.18;55.24;99660.30;107547;1253;99211;-63
2023/11/28 10:36:44;;;;;;;13.80;5.50;;;;;;;5.31;55.44;99653.71;107611;1253;99762;-64
2023/11/28 10:39:19;;;;;;;16.40;5.70;;;;;;;5.44;54.64;99650.82;107620;1251;113533;-64
2023/11/28 10:41:48;;;;;;;7.30;4.80;;;;;;;5.53;54.73;99639.78;107610;1253;108483;-64
2023/11/28 10:44:16;;;;;;;12.30;4.70;;;;;;;5.62;53.66;99633.52;107566;1253;107392;-63
2023/11/28 10:46:48;;;;;;;13.00;5.30;;;;;;;5.75;54.07;99633.75;107596;1253;99260;-63
2023/11/28 10:49:16;;;;;;;11.60;5.00;;;;;;;5.88;53.88;99629.29;107659;1251;99279;-61
2023/11/28 10:51:48;;;;;;;14.10;5.50;;;;;;;6.01;54.16;99629.10;107530;1253;112774;-61
2023/11/28 10:54:21;;;;;;;19.50;6.50;;;;;;;6.18;54.82;99620.27;107571;1251;110212;-61
2023/11/28 10:56:52;;;;;;;14.80;5.60;;;;;;;6.47;54.90;99623.08;107593;1251;107764;-61
2023/11/28 10:59:27;;;;;;;17.10;6.50;;;;;;;6.85;54.93;99613.38;107556;1253;99789;-62
2023/11/28 11:01:58;;;;;;;13.50;4.80;;;;;;;7.34;54.53;99599.48;107507;1254;99535;-62
2023/11/28 11:04:27;;;;;;;9.70;5.50;;;;;;;7.82;54.45;99600.43;107662;1253;111047;-63
2023/11/28 11:06:56;;;;;;;13.10;6.40;;;;;;;8.25;52.20;99590.69;107620;1251;108927;-62
2023/11/28 11:09:26;;;;;;;10.90;5.50;;;;;;;8.67;51.70;99585.48;107582;1251;108828;-62
2023/11/28 11:11:56;;;;;;;11.80;5.00;;;;;;;9.18;51.45;99577.23;107570;1255;99204;-61
2023/11/28 11:14:35;;;;;;;7.00;4.30;;;;;;;9.49;50.58;99578.47;107666;1252;99182;-63
2023/11/28 11:17:12;;;;;;;14.00;4.70;;;;;;;9.83;50.86;99568.21;107628;1251;113092;-62